sensor_id;sensor_type;location;lat;lon;timestamp;P1;durP1;ratioP1;P2;durP2;ratioP2
69325;SDS011;56471;53.508;49.252;2023-05-29T00:01:44;3.92;;;3.53;;
69325;SDS011;56471;53.508;49.252;2023-05-29T00:04:10;4.38;;;3.90;;
69325;SDS011;56471;53.508;49.252;2023-05-29T00:06:37;4.72;;;3.60;;
69325;SDS011;56471;53.508;49.252;2023-05-29T00:09:03;3.92;;;3.40;;
69325;SDS011;56471;53.508;49.252;2023-05-29T00:11:29;4.07;;;3.65;;
69325;SDS011;56471;53.508;49.252;2023-05-29T00:13:55;4.95;;;3.75;;
69325;SDS011;56471;53.508;49.252;2023-05-29T00:16:22;5.35;;;3.78;;
69325;SDS011;56471;53.508;49.252;2023-05-29T00:18:48;3.78;;;3.38;;
69325;SDS011;56471;53.508;49.252;2023-05-29T00:21:15;4.35;;;3.65;;
69325;SDS011;56471;53.508;49.252;2023-05-29T00:23:41;4.07;;;3.67;;
69325;SDS011;56471;53.508;49.252;2023-05-29T00:26:07;5.95;;;3.80;;
69325;SDS011;56471;53.508;49.252;2023-05-29T00:28:34;4.05;;;3.55;;
69325;SDS011;56471;53.508;49.252;2023-05-29T00:31:00;5.38;;;3.67;;
69325;SDS011;56471;53.508;49.252;2023-05-29T00:33:26;4.13;;;3.50;;
69325;SDS011;56471;53.508;49.252;2023-05-29T00:35:52;4.43;;;3.60;;
69325;SDS011;56471;53.508;49.252;2023-05-29T00:38:17;4.25;;;3.80;;
69325;SDS011;56471;53.508;49.252;2023-05-29T00:40:43;5.72;;;4.00;;
69325;SDS011;56471;53.508;49.252;2023-05-29T00:43:09;6.32;;;3.83;;
69325;SDS011;56471;53.508;49.252;2023-05-29T00:45:34;4.15;;;3.60;;
69325;SDS011;56471;53.508;49.252;2023-05-29T00:48:04;5.60;;;3.90;;
69325;SDS011;56471;53.508;49.252;2023-05-29T00:50:31;7.22;;;3.90;;
69325;SDS011;56471;53.508;49.252;2023-05-29T00:52:58;4.32;;;3.90;;
69325;SDS011;56471;53.508;49.252;2023-05-29T00:55:26;5.10;;;3.78;;
69325;SDS011;56471;53.508;49.252;2023-05-29T00:57:53;4.25;;;3.83;;
69325;SDS011;56471;53.508;49.252;2023-05-29T01:00:19;4.45;;;4.05;;
69325;SDS011;56471;53.508;49.252;2023-05-29T01:02:45;4.53;;;4.00;;
69325;SDS011;56471;53.508;49.252;2023-05-29T01:05:12;5.28;;;3.92;;
69325;SDS011;56471;53.508;49.252;2023-05-29T01:07:39;4.40;;;4.00;;
69325;SDS011;56471;53.508;49.252;2023-05-29T01:10:06;4.13;;;3.72;;
69325;SDS011;56471;53.508;49.252;2023-05-29T01:12:50;4.40;;;3.88;;
69325;SDS011;56471;53.508;49.252;2023-05-29T01:16:05;4.63;;;3.95;;
69325;SDS011;56471;53.508;49.252;2023-05-29T01:26:50;5.53;;;4.28;;
69325;SDS011;56471;53.508;49.252;2023-05-29T01:29:28;4.80;;;4.30;;
69325;SDS011;56471;53.508;49.252;2023-05-29T01:31:57;4.40;;;4.00;;
69325;SDS011;56471;53.508;49.252;2023-05-29T01:34:23;5.10;;;4.28;;
69325;SDS011;56471;53.508;49.252;2023-05-29T01:36:49;4.95;;;4.45;;
69325;SDS011;56471;53.508;49.252;2023-05-29T01:39:15;5.50;;;4.35;;
69325;SDS011;56471;53.508;49.252;2023-05-29T01:41:44;5.53;;;4.30;;
69325;SDS011;56471;53.508;49.252;2023-05-29T01:44:11;5.43;;;4.50;;
69325;SDS011;56471;53.508;49.252;2023-05-29T01:46:39;5.78;;;4.78;;
69325;SDS011;56471;53.508;49.252;2023-05-29T01:49:08;5.80;;;4.68;;
69325;SDS011;56471;53.508;49.252;2023-05-29T01:51:36;5.03;;;4.53;;
69325;SDS011;56471;53.508;49.252;2023-05-29T01:54:02;4.90;;;4.40;;
69325;SDS011;56471;53.508;49.252;2023-05-29T01:56:29;5.75;;;4.75;;
69325;SDS011;56471;53.508;49.252;2023-05-29T01:58:56;5.57;;;4.90;;
69325;SDS011;56471;53.508;49.252;2023-05-29T02:01:23;5.55;;;4.80;;
69325;SDS011;56471;53.508;49.252;2023-05-29T02:03:49;5.20;;;4.40;;
69325;SDS011;56471;53.508;49.252;2023-05-29T02:06:24;4.60;;;4.20;;
69325;SDS011;56471;53.508;49.252;2023-05-29T02:08:50;5.38;;;4.75;;
69325;SDS011;56471;53.508;49.252;2023-05-29T02:11:15;5.32;;;4.57;;
69325;SDS011;56471;53.508;49.252;2023-05-29T02:13:41;5.68;;;4.80;;
69325;SDS011;56471;53.508;49.252;2023-05-29T02:16:07;7.05;;;5.05;;
69325;SDS011;56471;53.508;49.252;2023-05-29T02:18:33;7.03;;;5.10;;
69325;SDS011;56471;53.508;49.252;2023-05-29T02:20:59;5.30;;;4.80;;
69325;SDS011;56471;53.508;49.252;2023-05-29T02:23:25;6.10;;;4.70;;
69325;SDS011;56471;53.508;49.252;2023-05-29T02:25:51;8.40;;;5.40;;
69325;SDS011;56471;53.508;49.252;2023-05-29T02:28:17;8.57;;;5.07;;
69325;SDS011;56471;53.508;49.252;2023-05-29T02:30:42;8.70;;;5.22;;
69325;SDS011;56471;53.508;49.252;2023-05-29T02:33:08;7.15;;;5.30;;
69325;SDS011;56471;53.508;49.252;2023-05-29T02:35:34;7.00;;;5.20;;
69325;SDS011;56471;53.508;49.252;2023-05-29T02:38:00;5.65;;;5.10;;
69325;SDS011;56471;53.508;49.252;2023-05-29T02:40:25;5.75;;;5.13;;
69325;SDS011;56471;53.508;49.252;2023-05-29T02:42:51;5.70;;;4.88;;
69325;SDS011;56471;53.508;49.252;2023-05-29T02:45:17;6.63;;;5.38;;
69325;SDS011;56471;53.508;49.252;2023-05-29T02:47:42;7.80;;;5.22;;
69325;SDS011;56471;53.508;49.252;2023-05-29T02:50:08;6.97;;;5.32;;
69325;SDS011;56471;53.508;49.252;2023-05-29T02:52:34;6.18;;;5.57;;
69325;SDS011;56471;53.508;49.252;2023-05-29T02:55:01;7.38;;;5.50;;
69325;SDS011;56471;53.508;49.252;2023-05-29T02:57:29;6.45;;;5.18;;
69325;SDS011;56471;53.508;49.252;2023-05-29T02:59:54;5.90;;;5.30;;
69325;SDS011;56471;53.508;49.252;2023-05-29T03:02:20;9.00;;;5.35;;
69325;SDS011;56471;53.508;49.252;2023-05-29T03:04:46;5.90;;;5.35;;
69325;SDS011;56471;53.508;49.252;2023-05-29T03:07:11;6.30;;;5.13;;
69325;SDS011;56471;53.508;49.252;2023-05-29T03:09:37;9.27;;;5.75;;
69325;SDS011;56471;53.508;49.252;2023-05-29T03:12:04;7.00;;;5.38;;
69325;SDS011;56471;53.508;49.252;2023-05-29T03:14:30;8.60;;;5.78;;
69325;SDS011;56471;53.508;49.252;2023-05-29T03:17:04;7.13;;;5.43;;
69325;SDS011;56471;53.508;49.252;2023-05-29T03:19:31;6.50;;;5.70;;
69325;SDS011;56471;53.508;49.252;2023-05-29T03:21:57;6.22;;;5.20;;
69325;SDS011;56471;53.508;49.252;2023-05-29T03:24:23;7.13;;;5.40;;
69325;SDS011;56471;53.508;49.252;2023-05-29T03:26:49;6.50;;;5.60;;
69325;SDS011;56471;53.508;49.252;2023-05-29T03:29:15;7.07;;;5.60;;
69325;SDS011;56471;53.508;49.252;2023-05-29T03:31:41;6.57;;;5.32;;
69325;SDS011;56471;53.508;49.252;2023-05-29T03:34:07;7.68;;;5.55;;
69325;SDS011;56471;53.508;49.252;2023-05-29T03:36:33;6.25;;;5.60;;
69325;SDS011;56471;53.508;49.252;2023-05-29T03:39:01;6.93;;;5.45;;
69325;SDS011;56471;53.508;49.252;2023-05-29T03:41:27;6.95;;;5.13;;
69325;SDS011;56471;53.508;49.252;2023-05-29T03:43:53;5.75;;;5.15;;
69325;SDS011;56471;53.508;49.252;2023-05-29T03:46:19;5.90;;;5.32;;
69325;SDS011;56471;53.508;49.252;2023-05-29T03:48:44;7.85;;;5.40;;
69325;SDS011;56471;53.508;49.252;2023-05-29T03:51:10;5.97;;;5.20;;
69325;SDS011;56471;53.508;49.252;2023-05-29T03:53:36;8.73;;;5.47;;
69325;SDS011;56471;53.508;49.252;2023-05-29T03:56:02;9.20;;;5.50;;
69325;SDS011;56471;53.508;49.252;2023-05-29T03:58:27;7.35;;;4.97;;
69325;SDS011;56471;53.508;49.252;2023-05-29T04:00:53;8.55;;;5.25;;
69325;SDS011;56471;53.508;49.252;2023-05-29T04:03:19;6.93;;;5.30;;
69325;SDS011;56471;53.508;49.252;2023-05-29T04:05:45;6.85;;;5.20;;
69325;SDS011;56471;53.508;49.252;2023-05-29T04:08:10;6.57;;;5.20;;
69325;SDS011;56471;53.508;49.252;2023-05-29T04:10:38;6.03;;;5.38;;
69325;SDS011;56471;53.508;49.252;2023-05-29T04:13:04;6.00;;;5.40;;
69325;SDS011;56471;53.508;49.252;2023-05-29T04:15:31;6.50;;;5.07;;
69325;SDS011;56471;53.508;49.252;2023-05-29T04:17:58;7.68;;;5.32;;
69325;SDS011;56471;53.508;49.252;2023-05-29T04:20:24;8.32;;;5.60;;
69325;SDS011;56471;53.508;49.252;2023-05-29T04:22:50;5.82;;;5.03;;
69325;SDS011;56471;53.508;49.252;2023-05-29T04:25:16;7.22;;;5.75;;
69325;SDS011;56471;53.508;49.252;2023-05-29T04:27:43;6.15;;;5.55;;
69325;SDS011;56471;53.508;49.252;2023-05-29T04:30:13;6.30;;;5.70;;
69325;SDS011;56471;53.508;49.252;2023-05-29T04:32:40;7.15;;;5.35;;
69325;SDS011;56471;53.508;49.252;2023-05-29T04:35:05;7.90;;;5.40;;
69325;SDS011;56471;53.508;49.252;2023-05-29T04:37:32;8.27;;;5.55;;
69325;SDS011;56471;53.508;49.252;2023-05-29T04:40:03;6.28;;;5.35;;
69325;SDS011;56471;53.508;49.252;2023-05-29T04:42:36;7.43;;;5.78;;
69325;SDS011;56471;53.508;49.252;2023-05-29T04:45:02;6.65;;;5.50;;
69325;SDS011;56471;53.508;49.252;2023-05-29T04:47:31;7.50;;;5.68;;
69325;SDS011;56471;53.508;49.252;2023-05-29T04:50:01;8.15;;;5.55;;
69325;SDS011;56471;53.508;49.252;2023-05-29T04:52:27;7.13;;;5.70;;
69325;SDS011;56471;53.508;49.252;2023-05-29T04:54:56;11.18;;;5.90;;
69325;SDS011;56471;53.508;49.252;2023-05-29T04:57:22;6.05;;;5.53;;
69325;SDS011;56471;53.508;49.252;2023-05-29T04:59:48;6.88;;;5.30;;
69325;SDS011;56471;53.508;49.252;2023-05-29T05:02:13;7.00;;;5.82;;
69325;SDS011;56471;53.508;49.252;2023-05-29T05:04:39;7.47;;;5.88;;
69325;SDS011;56471;53.508;49.252;2023-05-29T05:07:05;6.65;;;5.35;;
69325;SDS011;56471;53.508;49.252;2023-05-29T05:09:31;7.47;;;5.80;;
69325;SDS011;56471;53.508;49.252;2023-05-29T05:11:57;6.00;;;5.50;;
69325;SDS011;56471;53.508;49.252;2023-05-29T05:14:23;6.30;;;5.70;;
69325;SDS011;56471;53.508;49.252;2023-05-29T05:16:49;9.20;;;5.78;;
69325;SDS011;56471;53.508;49.252;2023-05-29T05:19:15;8.52;;;5.90;;
69325;SDS011;56471;53.508;49.252;2023-05-29T05:21:40;5.90;;;5.40;;
69325;SDS011;56471;53.508;49.252;2023-05-29T05:24:06;6.38;;;5.50;;
69325;SDS011;56471;53.508;49.252;2023-05-29T05:26:32;6.70;;;5.80;;
69325;SDS011;56471;53.508;49.252;2023-05-29T05:28:57;6.90;;;6.20;;
69325;SDS011;56471;53.508;49.252;2023-05-29T05:31:23;8.60;;;5.97;;
69325;SDS011;56471;53.508;49.252;2023-05-29T05:33:49;9.40;;;5.45;;
69325;SDS011;56471;53.508;49.252;2023-05-29T05:36:15;6.40;;;5.75;;
69325;SDS011;56471;53.508;49.252;2023-05-29T05:38:41;6.55;;;5.78;;
69325;SDS011;56471;53.508;49.252;2023-05-29T05:41:06;5.97;;;5.38;;
69325;SDS011;56471;53.508;49.252;2023-05-29T05:43:32;6.85;;;5.65;;
69325;SDS011;56471;53.508;49.252;2023-05-29T05:45:58;7.35;;;5.97;;
69325;SDS011;56471;53.508;49.252;2023-05-29T05:48:23;8.00;;;5.60;;
69325;SDS011;56471;53.508;49.252;2023-05-29T05:50:49;9.90;;;6.07;;
69325;SDS011;56471;53.508;49.252;2023-05-29T05:53:15;6.88;;;5.70;;
69325;SDS011;56471;53.508;49.252;2023-05-29T05:55:42;6.82;;;5.75;;
69325;SDS011;56471;53.508;49.252;2023-05-29T05:58:07;7.95;;;5.68;;
69325;SDS011;56471;53.508;49.252;2023-05-29T06:00:33;10.00;;;5.57;;
69325;SDS011;56471;53.508;49.252;2023-05-29T06:02:59;7.18;;;5.57;;
69325;SDS011;56471;53.508;49.252;2023-05-29T06:05:25;5.80;;;5.18;;
69325;SDS011;56471;53.508;49.252;2023-05-29T06:07:51;6.93;;;5.57;;
69325;SDS011;56471;53.508;49.252;2023-05-29T06:10:17;8.15;;;5.70;;
69325;SDS011;56471;53.508;49.252;2023-05-29T06:12:44;7.00;;;5.50;;
69325;SDS011;56471;53.508;49.252;2023-05-29T06:15:10;6.38;;;5.70;;
69325;SDS011;56471;53.508;49.252;2023-05-29T06:17:35;6.18;;;5.43;;
69325;SDS011;56471;53.508;49.252;2023-05-29T06:20:01;5.90;;;5.30;;
69325;SDS011;56471;53.508;49.252;2023-05-29T06:22:27;8.02;;;5.28;;
69325;SDS011;56471;53.508;49.252;2023-05-29T06:24:52;5.75;;;5.10;;
69325;SDS011;56471;53.508;49.252;2023-05-29T06:27:18;6.65;;;5.25;;
69325;SDS011;56471;53.508;49.252;2023-05-29T06:29:44;6.53;;;5.40;;
69325;SDS011;56471;53.508;49.252;2023-05-29T06:32:10;6.82;;;5.32;;
69325;SDS011;56471;53.508;49.252;2023-05-29T06:34:36;5.78;;;5.20;;
69325;SDS011;56471;53.508;49.252;2023-05-29T06:37:01;6.40;;;5.15;;
69325;SDS011;56471;53.508;49.252;2023-05-29T06:39:27;6.07;;;5.25;;
69325;SDS011;56471;53.508;49.252;2023-05-29T06:41:53;5.22;;;4.65;;
69325;SDS011;56471;53.508;49.252;2023-05-29T06:44:19;5.82;;;4.80;;
69325;SDS011;56471;53.508;49.252;2023-05-29T06:46:44;9.18;;;4.75;;
69325;SDS011;56471;53.508;49.252;2023-05-29T06:49:10;5.15;;;4.53;;
69325;SDS011;56471;53.508;49.252;2023-05-29T06:51:35;5.13;;;4.38;;
69325;SDS011;56471;53.508;49.252;2023-05-29T06:54:01;6.07;;;4.90;;
69325;SDS011;56471;53.508;49.252;2023-05-29T06:56:27;6.78;;;4.47;;
69325;SDS011;56471;53.508;49.252;2023-05-29T06:58:53;5.38;;;4.07;;
69325;SDS011;56471;53.508;49.252;2023-05-29T07:04:22;5.85;;;3.92;;
69325;SDS011;56471;53.508;49.252;2023-05-29T07:06:47;4.97;;;3.90;;
69325;SDS011;56471;53.508;49.252;2023-05-29T07:09:13;4.07;;;3.67;;
69325;SDS011;56471;53.508;49.252;2023-05-29T07:11:38;5.18;;;3.70;;
69325;SDS011;56471;53.508;49.252;2023-05-29T07:14:04;4.90;;;3.42;;
69325;SDS011;56471;53.508;49.252;2023-05-29T07:16:30;3.92;;;3.53;;
69325;SDS011;56471;53.508;49.252;2023-05-29T07:18:55;4.60;;;3.65;;
69325;SDS011;56471;53.508;49.252;2023-05-29T07:21:21;3.70;;;3.20;;
69325;SDS011;56471;53.508;49.252;2023-05-29T07:23:47;3.97;;;3.58;;
69325;SDS011;56471;53.508;49.252;2023-05-29T07:26:12;5.35;;;3.40;;
69325;SDS011;56471;53.508;49.252;2023-05-29T07:28:38;4.15;;;3.50;;
69325;SDS011;56471;53.508;49.252;2023-05-29T07:31:04;4.13;;;3.45;;
69325;SDS011;56471;53.508;49.252;2023-05-29T07:33:29;5.72;;;3.80;;
69325;SDS011;56471;53.508;49.252;2023-05-29T07:35:55;7.47;;;3.83;;
69325;SDS011;56471;53.508;49.252;2023-05-29T07:38:21;4.53;;;3.70;;
69325;SDS011;56471;53.508;49.252;2023-05-29T07:40:46;3.60;;;3.30;;
69325;SDS011;56471;53.508;49.252;2023-05-29T07:43:12;3.60;;;3.30;;
69325;SDS011;56471;53.508;49.252;2023-05-29T07:45:37;4.20;;;3.55;;
69325;SDS011;56471;53.508;49.252;2023-05-29T07:48:03;3.90;;;3.45;;
69325;SDS011;56471;53.508;49.252;2023-05-29T07:50:29;5.03;;;3.33;;
69325;SDS011;56471;53.508;49.252;2023-05-29T07:52:55;5.65;;;3.20;;
69325;SDS011;56471;53.508;49.252;2023-05-29T07:55:23;4.72;;;3.15;;
69325;SDS011;56471;53.508;49.252;2023-05-29T07:57:49;456.42;;;389.27;;
69325;SDS011;56471;53.508;49.252;2023-05-29T08:00:15;342.20;;;293.30;;
69325;SDS011;56471;53.508;49.252;2023-05-29T08:02:41;212.27;;;162.20;;
69325;SDS011;56471;53.508;49.252;2023-05-29T08:05:08;168.27;;;128.23;;
69325;SDS011;56471;53.508;49.252;2023-05-29T08:07:34;126.68;;;93.75;;
69325;SDS011;56471;53.508;49.252;2023-05-29T08:10:00;99.07;;;71.25;;
69325;SDS011;56471;53.508;49.252;2023-05-29T08:12:26;78.32;;;52.90;;
69325;SDS011;56471;53.508;49.252;2023-05-29T08:14:51;59.22;;;40.17;;
69325;SDS011;56471;53.508;49.252;2023-05-29T08:17:17;43.75;;;30.30;;
69325;SDS011;56471;53.508;49.252;2023-05-29T08:19:43;35.30;;;24.13;;
69325;SDS011;56471;53.508;49.252;2023-05-29T08:22:11;27.42;;;18.73;;
69325;SDS011;56471;53.508;49.252;2023-05-29T08:24:37;18.50;;;14.23;;
69325;SDS011;56471;53.508;49.252;2023-05-29T08:27:03;16.08;;;11.93;;
69325;SDS011;56471;53.508;49.252;2023-05-29T08:29:29;12.13;;;9.38;;
69325;SDS011;56471;53.508;49.252;2023-05-29T08:31:55;10.40;;;7.57;;
69325;SDS011;56471;53.508;49.252;2023-05-29T08:34:20;8.73;;;6.43;;
69325;SDS011;56471;53.508;49.252;2023-05-29T08:36:46;9.32;;;5.97;;
69325;SDS011;56471;53.508;49.252;2023-05-29T08:39:11;7.35;;;5.05;;
69325;SDS011;56471;53.508;49.252;2023-05-29T08:41:47;7.80;;;4.88;;
69325;SDS011;56471;53.508;49.252;2023-05-29T08:44:22;6.18;;;4.60;;
69325;SDS011;56471;53.508;49.252;2023-05-29T08:46:55;5.90;;;3.85;;
69325;SDS011;56471;53.508;49.252;2023-05-29T08:49:21;7.50;;;3.83;;
69325;SDS011;56471;53.508;49.252;2023-05-29T08:51:47;5.78;;;3.75;;
69325;SDS011;56471;53.508;49.252;2023-05-29T08:54:18;5.72;;;3.95;;
69325;SDS011;56471;53.508;49.252;2023-05-29T08:56:44;4.57;;;3.40;;
69325;SDS011;56471;53.508;49.252;2023-05-29T08:59:09;6.70;;;3.70;;
69325;SDS011;56471;53.508;49.252;2023-05-29T09:01:37;6.05;;;3.35;;
69325;SDS011;56471;53.508;49.252;2023-05-29T09:04:04;3.90;;;3.20;;
69325;SDS011;56471;53.508;49.252;2023-05-29T09:06:30;5.38;;;3.33;;
69325;SDS011;56471;53.508;49.252;2023-05-29T09:08:55;5.82;;;3.40;;
69325;SDS011;56471;53.508;49.252;2023-05-29T09:11:22;7.25;;;3.10;;
69325;SDS011;56471;53.508;49.252;2023-05-29T09:13:48;5.18;;;3.30;;
69325;SDS011;56471;53.508;49.252;2023-05-29T09:16:16;3.80;;;3.40;;
69325;SDS011;56471;53.508;49.252;2023-05-29T09:18:42;4.75;;;3.25;;
69325;SDS011;56471;53.508;49.252;2023-05-29T09:21:13;7.35;;;2.95;;
69325;SDS011;56471;53.508;49.252;2023-05-29T09:23:52;4.90;;;3.38;;
69325;SDS011;56471;53.508;49.252;2023-05-29T09:26:19;4.15;;;3.20;;
69325;SDS011;56471;53.508;49.252;2023-05-29T09:28:48;17.30;;;10.43;;
69325;SDS011;56471;53.508;49.252;2023-05-29T09:31:15;586.10;;;523.55;;
69325;SDS011;56471;53.508;49.252;2023-05-29T09:33:49;445.93;;;394.50;;
69325;SDS011;56471;53.508;49.252;2023-05-29T09:36:19;367.42;;;313.55;;
69325;SDS011;56471;53.508;49.252;2023-05-29T09:38:46;264.63;;;219.43;;
69325;SDS011;56471;53.508;49.252;2023-05-29T09:41:12;177.40;;;137.82;;
69325;SDS011;56471;53.508;49.252;2023-05-29T09:43:38;144.27;;;107.13;;
69325;SDS011;56471;53.508;49.252;2023-05-29T09:46:05;111.07;;;79.72;;
69325;SDS011;56471;53.508;49.252;2023-05-29T09:48:34;85.97;;;58.63;;
69325;SDS011;56471;53.508;49.252;2023-05-29T09:51:02;71.05;;;48.47;;
69325;SDS011;56471;53.508;49.252;2023-05-29T09:53:28;61.53;;;39.97;;
69325;SDS011;56471;53.508;49.252;2023-05-29T09:55:55;45.67;;;31.75;;
69325;SDS011;56471;53.508;49.252;2023-05-29T09:58:24;35.58;;;24.50;;
69325;SDS011;56471;53.508;49.252;2023-05-29T10:00:50;31.67;;;21.83;;
69325;SDS011;56471;53.508;49.252;2023-05-29T10:03:17;21.70;;;15.95;;
69325;SDS011;56471;53.508;49.252;2023-05-29T10:05:47;16.85;;;11.90;;
69325;SDS011;56471;53.508;49.252;2023-05-29T10:08:15;14.02;;;9.85;;
69325;SDS011;56471;53.508;49.252;2023-05-29T10:10:45;14.52;;;8.13;;
69325;SDS011;56471;53.508;49.252;2023-05-29T10:13:13;13.02;;;7.32;;
69325;SDS011;56471;53.508;49.252;2023-05-29T10:15:43;14.77;;;7.00;;
69325;SDS011;56471;53.508;49.252;2023-05-29T10:18:14;8.35;;;5.80;;
69325;SDS011;56471;53.508;49.252;2023-05-29T10:20:46;7.78;;;5.35;;
69325;SDS011;56471;53.508;49.252;2023-05-29T10:23:21;8.88;;;5.13;;
69325;SDS011;56471;53.508;49.252;2023-05-29T10:25:54;8.10;;;5.40;;
69325;SDS011;56471;53.508;49.252;2023-05-29T10:28:40;5.03;;;4.45;;
69325;SDS011;56471;53.508;49.252;2023-05-29T10:31:16;7.40;;;4.53;;
69325;SDS011;56471;53.508;49.252;2023-05-29T10:36:49;546.10;;;487.42;;
69325;SDS011;56471;53.508;49.252;2023-05-29T10:39:31;593.60;;;529.47;;
69325;SDS011;56471;53.508;49.252;2023-05-29T10:41:58;542.55;;;484.40;;
69325;SDS011;56471;53.508;49.252;2023-05-29T10:49:23;321.77;;;273.45;;
69325;SDS011;56471;53.508;49.252;2023-05-29T10:51:49;261.10;;;217.73;;
69325;SDS011;56471;53.508;49.252;2023-05-29T10:54:16;169.88;;;127.65;;
69325;SDS011;56471;53.508;49.252;2023-05-29T10:56:44;125.32;;;93.90;;
69325;SDS011;56471;53.508;49.252;2023-05-29T10:59:18;126.88;;;94.43;;
69325;SDS011;56471;53.508;49.252;2023-05-29T11:01:43;93.78;;;65.25;;
69325;SDS011;56471;53.508;49.252;2023-05-29T11:06:47;58.95;;;40.08;;
69325;SDS011;56471;53.508;49.252;2023-05-29T11:20:04;17.80;;;12.63;;
69325;SDS011;56471;53.508;49.252;2023-05-29T11:22:55;17.85;;;9.55;;
69325;SDS011;56471;53.508;49.252;2023-05-29T11:25:23;13.70;;;9.70;;
69325;SDS011;56471;53.508;49.252;2023-05-29T11:27:49;13.52;;;9.45;;
69325;SDS011;56471;53.508;49.252;2023-05-29T11:30:17;12.85;;;8.35;;
69325;SDS011;56471;53.508;49.252;2023-05-29T11:32:44;11.05;;;7.25;;
69325;SDS011;56471;53.508;49.252;2023-05-29T11:35:12;10.48;;;7.05;;
69325;SDS011;56471;53.508;49.252;2023-05-29T11:37:39;10.05;;;6.38;;
69325;SDS011;56471;53.508;49.252;2023-05-29T11:40:12;7.55;;;5.50;;
69325;SDS011;56471;53.508;49.252;2023-05-29T11:42:43;7.72;;;4.90;;
69325;SDS011;56471;53.508;49.252;2023-05-29T11:45:20;7.90;;;4.63;;
69325;SDS011;56471;53.508;49.252;2023-05-29T11:47:56;5.60;;;4.78;;
69325;SDS011;56471;53.508;49.252;2023-05-29T11:50:24;5.05;;;4.28;;
69325;SDS011;56471;53.508;49.252;2023-05-29T11:52:55;5.28;;;4.10;;
69325;SDS011;56471;53.508;49.252;2023-05-29T11:55:21;6.55;;;4.10;;
69325;SDS011;56471;53.508;49.252;2023-05-29T11:57:50;4.88;;;4.25;;
69325;SDS011;56471;53.508;49.252;2023-05-29T12:00:17;6.95;;;3.97;;
69325;SDS011;56471;53.508;49.252;2023-05-29T12:02:44;8.18;;;3.88;;
69325;SDS011;56471;53.508;49.252;2023-05-29T12:05:14;8.32;;;3.65;;
69325;SDS011;56471;53.508;49.252;2023-05-29T12:07:47;8.30;;;3.65;;
69325;SDS011;56471;53.508;49.252;2023-05-29T12:10:18;5.00;;;4.05;;
69325;SDS011;56471;53.508;49.252;2023-05-29T12:12:52;7.40;;;3.70;;
69325;SDS011;56471;53.508;49.252;2023-05-29T12:15:20;7.43;;;4.07;;
69325;SDS011;56471;53.508;49.252;2023-05-29T12:17:47;7.03;;;4.00;;
69325;SDS011;56471;53.508;49.252;2023-05-29T12:20:14;241.70;;;165.80;;
69325;SDS011;56471;53.508;49.252;2023-05-29T12:22:42;621.92;;;535.42;;
69325;SDS011;56471;53.508;49.252;2023-05-29T12:25:21;481.08;;;388.55;;
69325;SDS011;56471;53.508;49.252;2023-05-29T12:27:47;388.75;;;315.88;;
69325;SDS011;56471;53.508;49.252;2023-05-29T12:30:14;356.50;;;284.17;;
69325;SDS011;56471;53.508;49.252;2023-05-29T12:32:45;277.02;;;208.75;;
69325;SDS011;56471;53.508;49.252;2023-05-29T12:37:49;205.15;;;143.05;;
69325;SDS011;56471;53.508;49.252;2023-05-29T12:40:24;121.70;;;82.15;;
69325;SDS011;56471;53.508;49.252;2023-05-29T12:42:56;98.30;;;62.92;;
69325;SDS011;56471;53.508;49.252;2023-05-29T12:45:24;83.80;;;52.22;;
69325;SDS011;56471;53.508;49.252;2023-05-29T12:48:01;70.18;;;39.92;;
69325;SDS011;56471;53.508;49.252;2023-05-29T12:55:28;36.08;;;20.65;;
69325;SDS011;56471;53.508;49.252;2023-05-29T12:58:02;23.17;;;14.85;;
69325;SDS011;56471;53.508;49.252;2023-05-29T13:00:27;19.48;;;12.43;;
69325;SDS011;56471;53.508;49.252;2023-05-29T13:02:54;18.52;;;10.15;;
69325;SDS011;56471;53.508;49.252;2023-05-29T13:05:19;14.63;;;9.48;;
69325;SDS011;56471;53.508;49.252;2023-05-29T13:07:48;10.10;;;7.40;;
69325;SDS011;56471;53.508;49.252;2023-05-29T13:10:14;7.90;;;6.10;;
69325;SDS011;56471;53.508;49.252;2023-05-29T13:12:43;9.45;;;5.55;;
69325;SDS011;56471;53.508;49.252;2023-05-29T13:15:10;8.70;;;4.88;;
69325;SDS011;56471;53.508;49.252;2023-05-29T13:17:37;5.20;;;4.50;;
69325;SDS011;56471;53.508;49.252;2023-05-29T13:20:14;7.72;;;4.05;;
69325;SDS011;56471;53.508;49.252;2023-05-29T13:22:41;5.53;;;4.00;;
69325;SDS011;56471;53.508;49.252;2023-05-29T13:25:10;10.27;;;3.70;;
69325;SDS011;56471;53.508;49.252;2023-05-29T13:27:37;4.57;;;3.40;;
69325;SDS011;56471;53.508;49.252;2023-05-29T13:30:06;4.43;;;2.97;;
69325;SDS011;56471;53.508;49.252;2023-05-29T13:32:32;6.13;;;2.92;;
69325;SDS011;56471;53.508;49.252;2023-05-29T13:34:58;7.75;;;2.90;;
69325;SDS011;56471;53.508;49.252;2023-05-29T13:37:23;4.60;;;3.10;;
69325;SDS011;56471;53.508;49.252;2023-05-29T13:39:49;8.55;;;3.10;;
69325;SDS011;56471;53.508;49.252;2023-05-29T13:42:15;2.72;;;2.53;;
69325;SDS011;56471;53.508;49.252;2023-05-29T13:44:42;8.15;;;2.80;;
69325;SDS011;56471;53.508;49.252;2023-05-29T13:47:08;5.40;;;2.60;;
69325;SDS011;56471;53.508;49.252;2023-05-29T13:49:34;2.90;;;2.60;;
69325;SDS011;56471;53.508;49.252;2023-05-29T13:52:00;4.45;;;2.22;;
69325;SDS011;56471;53.508;49.252;2023-05-29T13:54:27;3.10;;;2.47;;
69325;SDS011;56471;53.508;49.252;2023-05-29T13:56:55;3.58;;;2.38;;
69325;SDS011;56471;53.508;49.252;2023-05-29T13:59:23;3.72;;;2.13;;
69325;SDS011;56471;53.508;49.252;2023-05-29T14:01:49;2.75;;;2.25;;
69325;SDS011;56471;53.508;49.252;2023-05-29T14:04:15;3.63;;;2.20;;
69325;SDS011;56471;53.508;49.252;2023-05-29T14:06:41;5.50;;;2.20;;
69325;SDS011;56471;53.508;49.252;2023-05-29T14:09:06;3.17;;;2.08;;
69325;SDS011;56471;53.508;49.252;2023-05-29T14:11:35;3.97;;;2.00;;
69325;SDS011;56471;53.508;49.252;2023-05-29T14:14:02;3.33;;;2.20;;
69325;SDS011;56471;53.508;49.252;2023-05-29T14:16:28;2.20;;;1.98;;
69325;SDS011;56471;53.508;49.252;2023-05-29T14:18:54;4.40;;;2.05;;
69325;SDS011;56471;53.508;49.252;2023-05-29T14:21:20;3.17;;;2.17;;
69325;SDS011;56471;53.508;49.252;2023-05-29T14:23:46;3.95;;;2.00;;
69325;SDS011;56471;53.508;49.252;2023-05-29T14:26:12;3.38;;;1.95;;
69325;SDS011;56471;53.508;49.252;2023-05-29T14:28:37;2.45;;;2.10;;
69325;SDS011;56471;53.508;49.252;2023-05-29T14:31:04;3.65;;;2.30;;
69325;SDS011;56471;53.508;49.252;2023-05-29T14:33:30;3.58;;;2.03;;
69325;SDS011;56471;53.508;49.252;2023-05-29T14:35:56;6.65;;;1.85;;
69325;SDS011;56471;53.508;49.252;2023-05-29T14:38:22;5.63;;;2.03;;
69325;SDS011;56471;53.508;49.252;2023-05-29T14:40:48;3.22;;;2.17;;
69325;SDS011;56471;53.508;49.252;2023-05-29T14:43:13;2.53;;;2.03;;
69325;SDS011;56471;53.508;49.252;2023-05-29T14:45:39;2.15;;;1.95;;
69325;SDS011;56471;53.508;49.252;2023-05-29T14:48:04;2.85;;;1.88;;
69325;SDS011;56471;53.508;49.252;2023-05-29T14:50:30;60.00;;;39.75;;
69325;SDS011;56471;53.508;49.252;2023-05-29T14:52:56;603.78;;;528.47;;
69325;SDS011;56471;53.508;49.252;2023-05-29T14:55:21;553.67;;;475.42;;
69325;SDS011;56471;53.508;49.252;2023-05-29T14:57:47;431.65;;;350.20;;
69325;SDS011;56471;53.508;49.252;2023-05-29T15:00:12;342.48;;;273.75;;
69325;SDS011;56471;53.508;49.252;2023-05-29T15:02:39;291.67;;;223.32;;
69325;SDS011;56471;53.508;49.252;2023-05-29T15:05:05;184.38;;;132.20;;
69325;SDS011;56471;53.508;49.252;2023-05-29T15:07:32;163.43;;;115.68;;